createdAt,value
2023-03-03T00:01:03.481Z,83.86
2023-03-03T00:03:04.663Z,83.68
2023-03-03T00:05:06.300Z,83.62
2023-03-03T00:07:07.849Z,82.96
2023-03-03T00:09:09.610Z,82.21
2023-03-03T00:11:11.662Z,83.07
2023-03-03T00:13:12.998Z,83.13
2023-03-03T00:15:14.959Z,83.64
2023-03-03T00:17:16.145Z,83.97
2023-03-03T00:19:17.260Z,84.29
2023-03-03T00:21:18.776Z,85.18
2023-03-03T00:23:20.745Z,85.23
2023-03-03T00:25:21.917Z,85.74
2023-03-03T00:29:25.579Z,85.1
2023-03-03T00:31:27.202Z,85.05
2023-03-03T00:33:28.605Z,86.13
2023-03-03T00:35:30.719Z,85.94
2023-03-03T00:37:32.353Z,85.95
2023-03-03T00:39:34.000Z,85.78
2023-03-03T00:41:35.999Z,85.77
2023-03-03T00:43:37.967Z,85.75
2023-03-03T00:45:39.106Z,86.33
2023-03-03T00:47:40.335Z,86.57
2023-03-03T00:49:41.549Z,86.07
2023-03-03T00:51:42.942Z,85.84
2023-03-03T00:53:44.942Z,86.15
2023-03-03T00:55:46.212Z,86.99
2023-03-03T00:57:47.794Z,87.52
2023-03-03T00:59:49.265Z,87.8
2023-03-03T01:01:51.051Z,88.09
2023-03-03T01:03:52.732Z,87.87
2023-03-03T01:05:53.868Z,87.44
2023-03-03T01:07:55.384Z,87.57
2023-03-03T01:11:58.391Z,86.8
2023-03-03T01:14:00.435Z,86.92
2023-03-03T01:16:01.861Z,87.71
2023-03-03T01:18:03.307Z,87.6
2023-03-03T01:20:04.933Z,87.98
2023-03-03T01:22:06.355Z,88.68
2023-03-03T01:24:07.852Z,88.49
2023-03-03T01:26:09.835Z,87.87
2023-03-03T01:28:11.232Z,87.9
2023-03-03T01:30:12.863Z,87.99
2023-03-03T01:32:14.722Z,88.61
2023-03-03T01:34:16.396Z,88.64
2023-03-03T01:36:17.838Z,88.73
2023-03-03T01:38:19.277Z,88.52
2023-03-03T01:40:20.317Z,88.31
2023-03-03T01:42:21.753Z,87.67
2023-03-03T01:44:23.251Z,87.43
2023-03-03T01:46:25.344Z,87.58
2023-03-03T01:48:26.765Z,88.2
2023-03-03T01:50:28.858Z,88.47
2023-03-03T01:54:32.454Z,88.53
2023-03-03T01:56:33.940Z,88.81
2023-03-03T01:58:35.237Z,89.83
2023-03-03T02:00:36.994Z,89.91
2023-03-03T02:02:38.156Z,89.87
2023-03-03T02:04:39.619Z,90.07
2023-03-03T02:06:41.376Z,90.19
2023-03-03T02:08:42.686Z,89.77
2023-03-03T02:10:44.126Z,89.49
2023-03-03T02:12:45.924Z,89.58
2023-03-03T02:14:47.179Z,89.32
2023-03-03T02:16:48.458Z,89.23
2023-03-03T02:18:50.228Z,89.6
2023-03-03T02:20:51.784Z,90.45
2023-03-03T02:22:53.058Z,90.6
2023-03-03T02:24:54.892Z,90.64
2023-03-03T02:26:56.730Z,90.63
2023-03-03T02:28:57.887Z,90.39
2023-03-03T02:30:59.923Z,90.35
2023-03-03T02:33:01.636Z,90.29
2023-03-03T02:37:04.589Z,90.43
2023-03-03T02:39:06.495Z,90.76
2023-03-03T02:41:07.704Z,90.8
2023-03-03T02:43:09.084Z,91.11
2023-03-03T02:45:10.639Z,91.03
2023-03-03T02:47:12.615Z,90.86
2023-03-03T02:49:14.551Z,90.95
2023-03-03T02:51:16.640Z,91.63
2023-03-03T02:53:18.594Z,91.24
2023-03-03T02:55:20.509Z,91.21
2023-03-03T02:57:22.267Z,91.18
2023-03-03T02:59:24.059Z,91.27
2023-03-03T03:01:25.645Z,90.8
2023-03-03T03:03:26.796Z,90.37
2023-03-03T03:05:27.972Z,90.34
2023-03-03T03:07:29.093Z,90.48
2023-03-03T03:09:30.960Z,91
2023-03-03T03:11:32.576Z,90.98
2023-03-03T03:13:34.584Z,90.83
2023-03-03T03:15:35.757Z,90.85
2023-03-03T03:19:39.098Z,91.01
2023-03-03T03:21:40.622Z,90.48
2023-03-03T03:23:42.125Z,90.39
2023-03-03T03:25:43.839Z,90.9
2023-03-03T03:27:45.093Z,91.18
2023-03-03T03:29:46.313Z,91.39
2023-03-03T03:31:47.849Z,91.65
2023-03-03T03:33:49.727Z,91.77
2023-03-03T03:35:51.073Z,91.93
2023-03-03T03:37:52.475Z,91.87
2023-03-03T03:39:53.966Z,91.72
2023-03-03T03:41:55.459Z,91.66
2023-03-03T03:43:56.924Z,91.81
2023-03-03T03:45:58.218Z,92.03
2023-03-03T03:47:59.499Z,92.01
2023-03-03T03:52:02.692Z,92.21
2023-03-03T03:54:03.988Z,92.64
2023-03-03T03:56:05.971Z,92.51
2023-03-03T03:58:07.441Z,92.35
2023-03-03T04:02:10.460Z,92.69
2023-03-03T04:04:12.318Z,92.89
2023-03-03T04:06:14.138Z,92.95
2023-03-03T04:08:15.392Z,92.8
2023-03-03T04:10:16.968Z,92.63
2023-03-03T04:12:19.086Z,92.54
2023-03-03T04:14:20.880Z,92.3
2023-03-03T04:16:22.074Z,92.08
2023-03-03T04:18:23.263Z,92.05
2023-03-03T04:20:25.090Z,91.98
2023-03-03T04:22:27.126Z,91.9
2023-03-03T04:24:29.212Z,91.88
2023-03-03T04:26:30.701Z,92.54
2023-03-03T04:28:31.873Z,92.74
2023-03-03T04:30:33.615Z,92.83
2023-03-03T04:34:37.233Z,92.85
2023-03-03T04:36:38.826Z,93.12
2023-03-03T04:38:39.995Z,93.21
2023-03-03T04:40:41.727Z,92.84
2023-03-03T04:44:44.067Z,92.62
2023-03-03T04:46:45.896Z,92.53
2023-03-03T04:48:47.587Z,92.51
2023-03-03T04:50:48.778Z,92.56
2023-03-03T04:52:50.665Z,92.77
2023-03-03T04:54:51.989Z,92.78
2023-03-03T04:56:53.827Z,92.79
2023-03-03T04:58:55.122Z,93.15
2023-03-03T05:00:57.172Z,93.45
2023-03-03T05:02:58.938Z,93.57
2023-03-03T05:05:01.026Z,93.53
2023-03-03T05:07:02.865Z,93.51
2023-03-03T05:09:04.377Z,93.47
2023-03-03T05:11:05.410Z,93.48
2023-03-03T05:13:07.123Z,93.68
2023-03-03T05:17:10.742Z,93.8
2023-03-03T05:19:12.410Z,93.6
2023-03-03T05:21:13.546Z,93.32
2023-03-03T05:23:15.170Z,93.23
2023-03-03T05:27:18.307Z,93.29
2023-03-03T05:29:20.067Z,93.41
2023-03-03T05:31:21.468Z,93.55
2023-03-03T05:33:22.639Z,93.67
2023-03-03T05:35:24.187Z,93.63
2023-03-03T05:37:25.310Z,93.7
2023-03-03T05:39:27.342Z,93.8
2023-03-03T05:41:28.867Z,93.88
2023-03-03T05:43:30.752Z,93.77
2023-03-03T05:45:32.518Z,93.65
2023-03-03T05:47:33.768Z,93.64
2023-03-03T05:49:35.723Z,93.67
2023-03-03T05:51:37.342Z,93.87
2023-03-03T05:53:39.022Z,94.31
2023-03-03T05:55:40.175Z,94.45
2023-03-03T05:57:42.086Z,94.28
2023-03-03T05:59:43.599Z,94.29
2023-03-03T06:01:44.775Z,94.35
2023-03-03T06:03:45.907Z,94.33
2023-03-03T06:05:47.738Z,94.19
2023-03-03T06:07:48.996Z,94.07
2023-03-03T06:08:33.012Z,94.14
2023-03-03T06:10:34.324Z,94.28
2023-03-03T06:12:35.562Z,94.29
2023-03-03T06:14:36.726Z,94.21
2023-03-03T06:16:38.220Z,94.13
2023-03-03T06:20:41.904Z,94.32
2023-03-03T06:22:43.988Z,94.3
2023-03-03T06:24:45.458Z,94.23
2023-03-03T06:26:48.128Z,94.22
2023-03-03T06:28:49.229Z,94.21
2023-03-03T06:30:50.841Z,94.28
2023-03-03T06:32:52.773Z,94.22
2023-03-03T06:34:54.663Z,94.23
2023-03-03T06:36:56.606Z,94.33
2023-03-03T06:38:58.577Z,94.34
2023-03-03T06:40:59.712Z,94.35
2023-03-03T06:43:00.931Z,94.31
2023-03-03T06:45:02.147Z,94.64
2023-03-03T06:47:03.961Z,94.76
2023-03-03T06:49:05.077Z,94.12
2023-03-03T06:51:06.292Z,94.25
2023-03-03T06:53:07.413Z,94.04
2023-03-03T06:55:08.956Z,93.29
2023-03-03T06:57:10.533Z,89.4
2023-03-03T06:59:12.336Z,89.43
2023-03-03T07:03:15.866Z,84.76
2023-03-03T07:05:17.827Z,82.74
2023-03-03T07:07:19.874Z,83.59
2023-03-03T07:09:21.726Z,83.44
2023-03-03T07:11:23.200Z,83.29
2023-03-03T07:13:24.300Z,84.32
2023-03-03T07:15:25.593Z,83.98
2023-03-03T07:17:27.213Z,84.6
2023-03-03T07:19:28.566Z,83.48
2023-03-03T07:21:30.314Z,80.86
2023-03-03T07:23:31.594Z,80.96
2023-03-03T07:25:32.739Z,82.88
2023-03-03T07:27:33.843Z,81.47
2023-03-03T07:29:35.664Z,80.74
2023-03-03T07:31:37.665Z,81.82
2023-03-03T07:33:39.523Z,80.92
2023-03-03T07:35:41.380Z,81.08
2023-03-03T07:37:43.209Z,80.33
2023-03-03T07:39:45.001Z,79.42
2023-03-03T07:41:46.929Z,77.66
2023-03-03T07:45:49.805Z,77.91
2023-03-03T07:47:51.518Z,78.45
2023-03-03T07:49:53.380Z,78.78
2023-03-03T07:51:54.807Z,76.61
2023-03-03T07:53:55.881Z,76.96
2023-03-03T07:55:57.127Z,76.49
2023-03-03T07:57:59.303Z,74.72
2023-03-03T08:00:00.376Z,75.17
2023-03-03T08:02:01.359Z,77.64
2023-03-03T08:04:02.525Z,76.65
2023-03-03T08:06:03.507Z,77.4
2023-03-03T08:08:04.978Z,78.8
2023-03-03T08:10:05.931Z,79.61
2023-03-03T08:12:07.804Z,78.9
2023-03-03T08:14:08.830Z,78.23
2023-03-03T08:18:11.131Z,73.41
2023-03-03T08:20:12.034Z,74.42
2023-03-03T08:22:13.617Z,75.24
2023-03-03T08:24:14.980Z,77.24
2023-03-03T08:28:17.685Z,76.23
2023-03-03T08:30:18.838Z,75.78
2023-03-03T08:32:20.026Z,77.28
2023-03-03T08:34:21.491Z,75.5
2023-03-03T08:36:23.161Z,76.28
2023-03-03T08:38:24.340Z,75.58
2023-03-03T08:40:25.350Z,77.6
2023-03-03T08:42:26.566Z,75.07
2023-03-03T08:44:27.540Z,74.95
2023-03-03T08:46:29.782Z,74.16
2023-03-03T08:48:31.063Z,76.05
2023-03-03T08:50:32.842Z,76.07
2023-03-03T08:52:34.868Z,73.57
2023-03-03T08:54:36.122Z,75.73
2023-03-03T08:56:37.398Z,74.14
2023-03-03T08:58:38.737Z,75.26
2023-03-03T09:00:39.641Z,74.47
2023-03-03T09:02:40.830Z,74.01
2023-03-03T09:04:42.690Z,73.14
2023-03-03T09:08:45.259Z,74.41
2023-03-03T09:10:46.483Z,75.22
2023-03-03T09:12:48.026Z,76.04
2023-03-03T09:16:50.392Z,74.44
2023-03-03T09:18:52.193Z,75.27
2023-03-03T09:20:53.220Z,73.2
2023-03-03T09:22:54.376Z,72.99
2023-03-03T09:26:57.592Z,73.14
2023-03-03T09:28:58.649Z,72.11
2023-03-03T09:31:00.242Z,73.56
2023-03-03T09:33:01.874Z,73.49
2023-03-03T09:35:03.270Z,72.42
2023-03-03T09:37:04.288Z,74.04
2023-03-03T09:39:05.628Z,74.42
2023-03-03T09:41:06.951Z,74.65
2023-03-03T09:43:08.706Z,74.36
2023-03-03T09:45:10.369Z,74.92
2023-03-03T09:47:12.032Z,74.64
2023-03-03T09:49:13.142Z,74.01
2023-03-03T09:51:14.437Z,73.9
2023-03-03T09:53:15.461Z,73.24
2023-03-03T09:55:17.288Z,75.15
2023-03-03T09:57:19.082Z,72.47
2023-03-03T09:59:20.257Z,73.23
2023-03-03T10:01:22.157Z,72.25
2023-03-03T10:03:23.525Z,72.91
2023-03-03T10:05:24.970Z,71.39
2023-03-03T10:09:27.767Z,70.91
2023-03-03T10:11:29.562Z,71.91
2023-03-03T10:13:31.366Z,71.68
2023-03-03T10:15:32.759Z,71.39
2023-03-03T10:17:33.934Z,72.2
2023-03-03T10:19:35.561Z,71.81
2023-03-03T10:21:36.893Z,69.67
2023-03-03T10:23:38.287Z,71.82
2023-03-03T10:25:39.651Z,70.42
2023-03-03T10:27:41.522Z,67.79
2023-03-03T10:29:44.173Z,69.2
2023-03-03T10:31:45.549Z,70.62
2023-03-03T10:33:46.631Z,68.14
2023-03-03T10:36:01.044Z,66.48
2023-03-03T10:37:49.100Z,66.77
2023-03-03T10:39:50.996Z,70.26
2023-03-03T10:41:52.341Z,68.47
2023-03-03T10:43:54.026Z,68.94
2023-03-03T10:45:55.129Z,68.88
2023-03-03T10:47:56.099Z,67.96
2023-03-03T10:51:58.968Z,67.22
2023-03-03T10:54:00.139Z,66.61
2023-03-03T10:56:02.000Z,68.36
2023-03-03T10:58:17.742Z,67.14
2023-03-03T11:00:04.586Z,67.38
2023-03-03T11:02:05.440Z,67.49
2023-03-03T11:04:06.674Z,66.83
2023-03-03T11:06:08.429Z,67.08
2023-03-03T11:08:09.934Z,65.36
2023-03-03T11:10:10.993Z,66.98
2023-03-03T11:12:12.610Z,64.13
2023-03-03T11:14:14.212Z,66.54
2023-03-03T11:16:15.341Z,64.86
2023-03-03T11:18:16.289Z,63.66
2023-03-03T11:20:18.015Z,65.99
2023-03-03T11:22:19.271Z,68.6
2023-03-03T11:24:20.405Z,64.41
2023-03-03T11:26:21.544Z,64.64
2023-03-03T11:28:22.613Z,66.87
2023-03-03T11:30:23.513Z,68.09
2023-03-03T11:32:24.591Z,65.23
2023-03-03T11:34:26.471Z,63.66
2023-03-03T11:36:27.870Z,63.58
2023-03-03T11:40:30.837Z,65.79
2023-03-03T11:42:31.799Z,65.14
2023-03-03T11:44:33.348Z,64.7
2023-03-03T11:46:35.007Z,65.58
2023-03-03T11:48:36.404Z,62.91
2023-03-03T11:50:37.458Z,64.95
2023-03-03T11:52:39.607Z,64.42
2023-03-03T11:54:41.373Z,62.94
2023-03-03T11:56:42.840Z,62.62
2023-03-03T11:58:43.819Z,58.59
2023-03-03T12:00:44.785Z,60.62
2023-03-03T12:02:46.444Z,60.28
2023-03-03T12:04:48.170Z,61.15
2023-03-03T12:06:49.743Z,62.06
2023-03-03T12:08:51.007Z,60.62
2023-03-03T12:10:52.697Z,60.81
2023-03-03T12:12:54.464Z,62.18
2023-03-03T12:14:56.204Z,62.62
2023-03-03T12:16:57.797Z,62.11
2023-03-03T12:18:59.239Z,61.7
2023-03-03T12:21:01.001Z,58.14
2023-03-03T12:23:06.686Z,59.74
2023-03-03T12:25:04.146Z,62.25
2023-03-03T12:27:05.737Z,61.06
2023-03-03T12:29:06.976Z,60.4
2023-03-03T12:33:09.413Z,60.71
2023-03-03T12:35:10.609Z,61.7
2023-03-03T12:37:12.197Z,60.61
2023-03-03T12:39:13.649Z,60.49
2023-03-03T12:41:14.711Z,60.49
2023-03-03T12:43:15.931Z,62.71
2023-03-03T12:45:17.848Z,59.59
2023-03-03T12:47:18.776Z,59.23
2023-03-03T12:49:20.320Z,61.14
2023-03-03T12:51:21.675Z,60.37
2023-03-03T12:53:24.191Z,57.25
2023-03-03T12:56:08.696Z,58.61
2023-03-03T12:58:10.253Z,58.48
2023-03-03T13:00:11.654Z,58.78
2023-03-03T13:02:12.749Z,57.03
2023-03-03T13:04:14.395Z,59.87
2023-03-03T13:06:16.119Z,59.38
2023-03-03T13:10:27.552Z,54.36
2023-03-03T13:12:20.180Z,53.63
2023-03-03T13:14:21.101Z,54.99
2023-03-03T13:16:29.132Z,56.42
2023-03-03T13:18:24.544Z,56.95
2023-03-03T13:20:26.421Z,55.33
2023-03-03T13:22:27.776Z,54.69
2023-03-03T13:24:29.196Z,55.08
2023-03-03T13:26:32.000Z,53.66
2023-03-03T13:28:32.018Z,52.25
2023-03-03T13:30:33.153Z,49.91
2023-03-03T13:32:34.278Z,51.54
2023-03-03T13:34:35.288Z,50.94
2023-03-03T13:36:37.080Z,52.1
2023-03-03T13:38:40.137Z,52.41
2023-03-03T13:42:41.466Z,50.85
2023-03-03T13:44:42.791Z,49.54
2023-03-03T13:46:43.773Z,50.15
2023-03-03T13:48:45.486Z,49.98
2023-03-03T13:52:47.344Z,49.45
2023-03-03T13:54:48.480Z,48.83
2023-03-03T13:56:49.526Z,48.83
2023-03-03T13:58:50.915Z,49.6
2023-03-03T14:00:51.938Z,48.09
2023-03-03T14:02:53.190Z,46.99
2023-03-03T14:04:54.040Z,47.17
2023-03-03T14:08:56.067Z,43.61
2023-03-03T14:10:56.988Z,45.46
2023-03-03T14:12:58.915Z,47.13
2023-03-03T14:15:00.136Z,43.34
2023-03-03T14:17:01.632Z,44.58
2023-03-03T14:19:03.176Z,47.85
2023-03-03T14:21:04.410Z,47.98
2023-03-03T14:23:06.112Z,45
2023-03-03T14:25:08.415Z,48.49
2023-03-03T14:27:10.134Z,47.4
2023-03-03T14:29:11.866Z,43.06
2023-03-03T14:31:12.850Z,44.74
2023-03-03T14:33:14.400Z,45.61
2023-03-03T14:35:15.377Z,46.42
2023-03-03T14:37:16.668Z,46.84
2023-03-03T14:39:17.745Z,44.47
2023-03-03T14:41:19.470Z,42.54
2023-03-03T14:43:20.863Z,42.94
2023-03-03T14:45:29.295Z,44.96
2023-03-03T14:47:22.960Z,44.68
2023-03-03T14:51:25.764Z,47.76
2023-03-03T14:53:27.188Z,45.72
2023-03-03T14:55:28.778Z,47.3
2023-03-03T14:57:29.928Z,44.69
2023-03-03T14:59:31.093Z,45.14
2023-03-03T15:01:32.611Z,45.47
2023-03-03T15:03:33.777Z,45.81
2023-03-03T15:05:35.429Z,45.46
2023-03-03T15:07:38.135Z,44.7
2023-03-03T15:09:40.860Z,44.8
2023-03-03T15:11:40.409Z,45.02
2023-03-03T15:13:41.527Z,45.25
2023-03-03T15:15:43.912Z,47.44
2023-03-03T15:17:44.322Z,46.33
2023-03-03T15:19:45.548Z,47.41
2023-03-03T15:23:48.005Z,47.22
2023-03-03T15:25:53.390Z,47
2023-03-03T15:27:50.497Z,47.37
2023-03-03T15:29:52.072Z,46.94
2023-03-03T15:33:55.177Z,49.52
2023-03-03T15:35:56.452Z,47.31
2023-03-03T15:37:58.208Z,46.88
2023-03-03T15:39:59.081Z,46.2
2023-03-03T15:42:00.680Z,46.87
2023-03-03T15:44:01.846Z,49.1
2023-03-03T15:46:03.215Z,51.01
2023-03-03T15:48:04.871Z,50.68
2023-03-03T15:50:06.249Z,49.84
2023-03-03T15:52:07.937Z,50.41
2023-03-03T15:54:08.835Z,50.52
2023-03-03T15:56:10.490Z,50.67
2023-03-03T15:58:12.178Z,51.02
2023-03-03T16:00:14.057Z,50.29
2023-03-03T16:02:15.927Z,50.48
2023-03-03T16:04:16.927Z,51.14
2023-03-03T16:06:18.237Z,50.51
2023-03-03T16:08:19.355Z,51.51
2023-03-03T16:10:21.039Z,52.47
2023-03-03T16:12:22.895Z,52.18
2023-03-03T16:16:25.639Z,51.7
2023-03-03T16:18:26.651Z,53.6
2023-03-03T16:22:29.959Z,53.43
2023-03-03T16:24:32.006Z,52.93
2023-03-03T16:26:33.313Z,52.13
2023-03-03T16:28:34.935Z,51.79
2023-03-03T16:30:36.395Z,51.98
2023-03-03T16:32:37.945Z,51.76
2023-03-03T16:34:39.654Z,52.35
2023-03-03T16:36:40.749Z,52.54
2023-03-03T16:38:42.162Z,52.56
2023-03-03T16:40:43.274Z,52.82
2023-03-03T16:42:45.127Z,53.13
2023-03-03T16:44:46.122Z,53.31
2023-03-03T16:46:47.195Z,54.54
2023-03-03T16:48:48.944Z,54.52
2023-03-03T16:50:50.301Z,55.09
2023-03-03T16:52:52.194Z,55.52
2023-03-03T16:54:53.997Z,55.53
2023-03-03T16:56:55.451Z,56.85
2023-03-03T16:58:57.044Z,56.19
2023-03-03T17:00:58.813Z,56.88
2023-03-03T17:05:01.970Z,57.66
2023-03-03T17:07:03.179Z,57.55
2023-03-03T17:09:04.702Z,58.21
2023-03-03T17:11:05.674Z,58.92
2023-03-03T17:15:08.945Z,58.31
2023-03-03T17:17:10.535Z,57.74
2023-03-03T17:19:12.473Z,57.71
2023-03-03T17:21:13.922Z,57.75
2023-03-03T17:23:15.209Z,58.05
2023-03-03T17:25:16.378Z,57.55
2023-03-03T17:27:17.999Z,58.27
2023-03-03T17:29:19.549Z,59.76
2023-03-03T17:31:21.517Z,60.75
2023-03-03T17:33:22.722Z,61.31
2023-03-03T17:37:26.284Z,62.43
2023-03-03T17:39:27.419Z,62.75
2023-03-03T17:41:29.355Z,63.31
2023-03-03T17:43:30.813Z,62.8
2023-03-03T17:47:34.175Z,64.21
2023-03-03T17:49:35.999Z,63.94
2023-03-03T17:51:37.773Z,64.89
2023-03-03T17:53:39.620Z,65.01
2023-03-03T17:55:41.175Z,66.03
2023-03-03T17:57:42.420Z,66.1
2023-03-03T17:59:44.380Z,66.58
2023-03-03T18:01:45.753Z,66.61
2023-03-03T18:03:47.110Z,67.59
2023-03-03T18:05:48.763Z,68.2
2023-03-03T18:07:50.005Z,68.94
2023-03-03T18:09:51.523Z,68.9
2023-03-03T18:11:53.014Z,68.41
2023-03-03T18:13:55.018Z,68.09
2023-03-03T18:16:11.455Z,68.51
2023-03-03T18:19:59.473Z,71.76
2023-03-03T18:22:01.299Z,72.78
2023-03-03T18:24:02.989Z,73.34
2023-03-03T18:26:04.276Z,73.64
2023-03-03T18:30:07.002Z,73.69
2023-03-03T18:32:08.658Z,72.95
2023-03-03T18:34:09.927Z,72.31
2023-03-03T18:36:11.880Z,72.78
2023-03-03T18:38:13.136Z,72.73
2023-03-03T18:40:14.281Z,72.88
2023-03-03T18:42:15.551Z,73.8
2023-03-03T18:44:17.069Z,74.15
2023-03-03T18:46:18.752Z,74.4
2023-03-03T18:48:19.974Z,74.54
2023-03-03T18:50:20.924Z,74.83
2023-03-03T18:52:22.339Z,74.79
2023-03-03T18:54:23.994Z,74.23
2023-03-03T18:56:25.612Z,74.35
2023-03-03T18:58:27.610Z,74.3
2023-03-03T19:00:29.429Z,74.38
2023-03-03T19:02:30.906Z,74.34
2023-03-03T19:04:32.714Z,74.43
2023-03-03T19:06:34.133Z,74.5
2023-03-03T19:08:35.734Z,74.47
2023-03-03T19:12:39.689Z,74.84
2023-03-03T19:14:41.221Z,74.76
2023-03-03T19:16:44.373Z,75.05
2023-03-03T19:18:44.738Z,75.21
2023-03-03T19:20:46.254Z,75.35
2023-03-03T19:22:47.848Z,75.64
2023-03-03T19:24:49.860Z,76.07
2023-03-03T19:26:51.129Z,76.51
2023-03-03T19:28:52.681Z,76.96
2023-03-03T19:30:54.218Z,76.87
2023-03-03T19:32:55.352Z,77.19
2023-03-03T19:34:56.688Z,77.43
2023-03-03T19:36:58.044Z,78.18
2023-03-03T19:38:59.593Z,78.86
2023-03-03T19:39:45.824Z,78.85
2023-03-03T19:41:44.941Z,79.71
2023-03-03T19:43:46.731Z,80.34
2023-03-03T19:45:48.569Z,80.41
2023-03-03T19:49:51.663Z,80.22
2023-03-03T19:51:52.822Z,80.24
2023-03-03T19:53:54.685Z,80.61
2023-03-03T19:55:55.973Z,80.59
2023-03-03T19:57:57.564Z,79.74
2023-03-03T19:59:59.017Z,80.1
2023-03-03T20:02:00.261Z,80.24
2023-03-03T20:04:01.502Z,80.44
2023-03-03T20:06:02.797Z,80.01
2023-03-03T20:08:04.396Z,79.84
2023-03-03T20:10:05.739Z,79.89
2023-03-03T20:12:07.470Z,80.68
2023-03-03T20:14:08.923Z,81.24
2023-03-03T20:16:11.127Z,81.14
2023-03-03T20:18:11.144Z,81.74
2023-03-03T20:20:12.568Z,82.34
2023-03-03T20:22:13.859Z,82.6
2023-03-03T20:24:15.567Z,83.12
2023-03-03T20:26:17.134Z,83.82
2023-03-03T20:28:18.959Z,83.78
2023-03-03T20:32:22.225Z,84.48
2023-03-03T20:34:23.428Z,84.4
2023-03-03T20:36:24.976Z,84.64
2023-03-03T20:38:26.321Z,85.34
2023-03-03T20:40:27.632Z,85.14
2023-03-03T20:42:29.088Z,85.59
2023-03-03T20:44:30.673Z,85.69
2023-03-03T20:46:32.664Z,84.87
2023-03-03T20:48:33.960Z,84.82
2023-03-03T20:50:35.515Z,85.02
2023-03-03T20:52:37.455Z,85.14
2023-03-03T20:54:38.584Z,85.36
2023-03-03T20:56:40.208Z,86.17
2023-03-03T20:58:41.368Z,86.27
2023-03-03T21:00:43.418Z,87.05
2023-03-03T21:04:47.070Z,86.69
2023-03-03T21:06:48.684Z,87.02
2023-03-03T21:08:50.671Z,87.73
2023-03-03T21:10:52.736Z,87.48
2023-03-03T21:14:55.857Z,86.66
2023-03-03T21:16:57.418Z,86.79
2023-03-03T21:18:59.331Z,87.03
2023-03-03T21:21:00.879Z,87.39
2023-03-03T21:23:02.608Z,87.28
2023-03-03T21:25:03.867Z,87.36
2023-03-03T21:27:04.974Z,87.72
2023-03-03T21:29:06.588Z,87.68
2023-03-03T21:31:08.360Z,88.05
2023-03-03T21:33:10.434Z,88.6
2023-03-03T21:35:12.303Z,88.79
2023-03-03T21:37:14.271Z,88.31
2023-03-03T21:39:15.983Z,88.19
2023-03-03T21:41:17.662Z,87.99
2023-03-03T21:43:19.252Z,87.84
2023-03-03T21:47:23.055Z,87.85
2023-03-03T21:49:24.516Z,87.94
2023-03-03T21:51:25.832Z,88.02
2023-03-03T21:53:27.014Z,87.75
2023-03-03T21:57:30.161Z,87.75
2023-03-03T21:59:31.257Z,87.68
2023-03-03T22:01:33.402Z,88.14
2023-03-03T22:03:34.532Z,88.39
2023-03-03T22:05:36.282Z,88.59
2023-03-03T22:07:37.978Z,88.68
2023-03-03T22:09:39.443Z,88.58
2023-03-03T22:11:40.776Z,88.55
2023-03-03T22:13:42.815Z,88.5
2023-03-03T22:15:44.654Z,88.77
2023-03-03T22:17:46.564Z,88.68
2023-03-03T22:19:47.856Z,89.6
2023-03-03T22:21:49.652Z,89.95
2023-03-03T22:23:51.152Z,89.65
2023-03-03T22:25:53.014Z,89.58
2023-03-03T22:29:56.579Z,89.68
2023-03-03T22:31:57.716Z,89.63
2023-03-03T22:33:58.887Z,89.61
2023-03-03T22:36:00.005Z,90.24
2023-03-03T22:40:03.476Z,90.8
2023-03-03T22:42:05.616Z,90.74
2023-03-03T22:44:07.225Z,91.25
2023-03-03T22:46:09.013Z,91.44
2023-03-03T22:48:10.624Z,91.34
2023-03-03T22:50:12.304Z,91.12
2023-03-03T22:52:13.400Z,91.76
2023-03-03T22:54:14.949Z,91.74
2023-03-03T22:56:16.264Z,91.46
2023-03-03T22:58:17.525Z,91.31
2023-03-03T23:00:19.562Z,91.05
2023-03-03T23:02:21.145Z,90.82
2023-03-03T23:04:22.330Z,90.51
2023-03-03T23:06:23.932Z,90.5
2023-03-03T23:08:25.687Z,90.53
2023-03-03T23:10:27.433Z,90.72
2023-03-03T23:12:29.090Z,90.71
2023-03-03T23:14:30.299Z,90.74
2023-03-03T23:16:32.038Z,91.07
2023-03-03T23:18:33.442Z,90.79
2023-03-03T23:22:37.134Z,90.6
2023-03-03T23:24:39.396Z,90.78
2023-03-03T23:26:40.770Z,90.66
2023-03-03T23:28:42.445Z,90.66
2023-03-03T23:30:44.248Z,90.58
2023-03-03T23:32:46.313Z,90.72
2023-03-03T23:34:47.881Z,91
2023-03-03T23:36:49.381Z,91.33
2023-03-03T23:38:50.783Z,91.47
2023-03-03T23:40:52.803Z,91.89
2023-03-03T23:42:53.941Z,91.83
2023-03-03T23:44:55.129Z,91.87
2023-03-03T23:46:56.731Z,91.61
2023-03-03T23:48:58.069Z,92.01
2023-03-03T23:50:59.149Z,91.98
2023-03-03T23:53:00.627Z,91.91
2023-03-03T23:55:02.539Z,91.89
2023-03-03T23:57:04.545Z,91.99
2023-03-03T23:59:06.554Z,92.05
